Time;durP1;ratioP1;P1;durP2;ratioP2;P2;SDS_P1;SDS_P2;PMS_P1;PMS_P2;Temp;Humidity;BMP_temperature;BMP_pressure;BME280_temperature;BME280_humidity;BME280_pressure;Samples;Min_cycle;Max_cycle;Signal;HPM_P1;HPM_P2
2022/09/16 00:00:45;;;;;;;3.08;2.80;;;15.40;99.90;;;;;;5218394;28;20517;-72
2022/09/16 00:03:19;;;;;;;2.78;2.45;;;15.40;99.90;;;;;;5219057;28;20055;-72
2022/09/16 00:05:54;;;;;;;3.97;2.58;;;15.40;99.90;;;;;;5174392;28;20111;-73
2022/09/16 00:08:27;;;;;;;2.88;2.58;;;15.40;99.90;;;;;;5217086;28;20036;-72
2022/09/16 00:11:02;;;;;;;3.33;2.90;;;15.50;99.90;;;;;;5219964;28;20033;-72
2022/09/16 00:13:39;;;;;;;2.92;2.50;;;15.50;99.90;;;;;;5235994;28;20045;-72
2022/09/16 00:16:28;;;;;;;2.90;2.70;;;15.50;99.90;;;;;;5202932;28;20033;-72
2022/09/16 00:19:02;;;;;;;4.65;2.95;;;15.40;99.90;;;;;;5202225;28;20047;-72
2022/09/16 00:21:34;;;;;;;4.20;3.15;;;15.30;99.90;;;;;;5222288;28;20045;-72
2022/09/16 00:24:12;;;;;;;2.50;2.30;;;15.30;99.90;;;;;;5214624;28;20040;-73
2022/09/16 00:26:49;;;;;;;6.25;2.92;;;15.30;99.90;;;;;;5239351;28;20298;-73
2022/09/16 00:29:23;;;;;;;3.80;3.50;;;15.40;99.90;;;;;;5239611;28;20031;-73
2022/09/16 00:31:55;;;;;;;3.72;3.42;;;15.30;99.90;;;;;;5239622;28;20042;-72
2022/09/16 00:34:29;;;;;;;8.90;3.22;;;15.40;99.90;;;;;;5220421;28;20033;-72
2022/09/16 00:37:02;;;;;;;;;;;15.40;99.90;;;;;;5188294;28;20029;-72
2022/09/16 00:39:40;;;;;;;5.30;3.35;;;15.40;99.90;;;;;;5234769;28;19932;-71
2022/09/16 00:42:20;;;;;;;3.53;3.22;;;15.30;99.90;;;;;;5217576;28;20035;-72
2022/09/16 00:45:06;;;;;;;3.97;3.58;;;15.30;99.90;;;;;;5218993;28;20035;-72
2022/09/16 00:47:59;;;;;;;4.28;3.17;;;15.20;99.90;;;;;;5218556;28;20372;-72
2022/09/16 00:50:30;;;;;;;3.90;3.20;;;15.30;99.90;;;;;;5221474;28;20036;-72
2022/09/16 00:53:04;;;;;;;3.33;3.03;;;15.30;99.90;;;;;;5225941;28;20358;-72
2022/09/16 00:55:40;;;;;;;3.75;3.35;;;15.40;99.90;;;;;;5216732;28;20036;-72
2022/09/16 00:58:49;;;;;;;3.42;3.13;;;15.30;99.90;;;;;;5219462;28;20055;-72
2022/09/16 01:01:23;;;;;;;3.25;2.67;;;15.20;99.90;;;;;;5195912;28;20080;-73
2022/09/16 01:04:01;;;;;;;3.47;3.17;;;15.30;99.90;;;;;;5228086;28;20394;-72
2022/09/16 01:06:41;;;;;;;3.17;2.88;;;15.20;99.90;;;;;;5214506;28;20086;-72
2022/09/16 01:09:13;;;;;;;3.22;2.92;;;15.20;99.90;;;;;;5204559;28;20041;-72
2022/09/16 01:11:44;;;;;;;3.17;2.88;;;15.20;99.90;;;;;;5204496;28;20051;-74
2022/09/16 01:17:45;;;;;;;3.58;2.70;;;15.10;99.90;;;;;;5173610;28;20042;-73
2022/09/16 01:20:54;;;;;;;3.55;2.80;;;15.10;99.90;;;;;;5151611;28;20034;-73
2022/09/16 01:24:08;;;;;;;2.97;2.67;;;15.00;99.90;;;;;;5173693;28;20056;-72
2022/09/16 01:27:16;;;;;;;3.40;2.88;;;15.00;99.90;;;;;;5157466;28;20049;-72
2022/09/16 01:30:30;;;;;;;2.80;2.60;;;14.90;99.90;;;;;;5158512;28;20044;-72
2022/09/16 01:33:39;;;;;;;4.22;2.67;;;14.90;99.90;;;;;;5174390;28;20644;-72
2022/09/16 01:37:11;;;;;;;5.30;2.80;;;14.80;99.90;;;;;;5174064;28;20363;-74
2022/09/16 01:40:09;;;;;;;3.45;3.00;;;14.80;99.90;;;;;;5138237;28;20520;-73
2022/09/16 01:43:21;;;;;;;4.07;3.17;;;14.80;99.90;;;;;;5160857;28;20049;-72
2022/09/16 01:46:02;;;;;;;7.10;2.58;;;14.80;99.90;;;;;;5157500;28;20076;-74
2022/09/16 01:49:15;;;;;;;3.03;2.70;;;14.80;99.90;;;;;;5143103;28;20057;-72
2022/09/16 01:52:45;;;;;;;3.47;2.88;;;14.90;99.90;;;;;;5153874;28;20037;-72
2022/09/16 01:55:32;;;;;;;4.38;3.17;;;15.00;99.90;;;;;;5120739;28;20076;-72
2022/09/16 01:58:31;;;;;;;4.13;2.50;;;14.90;99.90;;;;;;5138489;28;20045;-72
2022/09/16 02:01:24;;;;;;;5.30;3.17;;;14.90;99.90;;;;;;5155512;28;20041;-72
2022/09/16 02:04:03;;;;;;;7.25;3.70;;;14.90;99.90;;;;;;5173132;28;20051;-72
2022/09/16 02:06:45;;;;;;;6.95;3.40;;;14.90;99.90;;;;;;5134920;28;20046;-74
2022/09/16 02:09:25;;;;;;;3.42;2.63;;;14.90;99.90;;;;;;5159754;28;20188;-73
2022/09/16 02:12:05;;;;;;;3.10;2.80;;;14.80;99.90;;;;;;5159691;28;20030;-73
2022/09/16 02:14:47;;;;;;;5.20;2.90;;;14.80;99.90;;;;;;5180549;28;20038;-73
2022/09/16 02:17:25;;;;;;;4.00;3.05;;;14.60;99.90;;;;;;5218922;28;20044;-74
2022/09/16 02:20:06;;;;;;;3.50;3.20;;;14.50;99.90;;;;;;5247999;28;20048;-73
2022/09/16 02:22:56;;;;;;;4.65;3.08;;;14.60;99.90;;;;;;5220533;28;20055;-74
2022/09/16 02:25:34;;;;;;;5.68;3.22;;;14.60;99.90;;;;;;5211886;28;20037;-74
2022/09/16 02:28:18;;;;;;;3.85;3.10;;;14.60;99.90;;;;;;5216572;28;20437;-74
2022/09/16 02:30:56;;;;;;;6.13;3.70;;;14.60;99.90;;;;;;5185001;28;20033;-74
2022/09/16 02:33:46;;;;;;;5.22;3.10;;;14.90;99.90;;;;;;5229849;28;20044;-74
2022/09/16 02:36:22;;;;;;;4.72;3.20;;;14.90;99.90;;;;;;5223409;28;20556;-73
2022/09/16 02:39:13;;;;;;;5.25;3.25;;;14.80;99.90;;;;;;5219431;28;20036;-74
2022/09/16 02:41:48;;;;;;;3.38;3.08;;;14.70;99.90;;;;;;5219583;28;20454;-74
2022/09/16 02:44:28;;;;;;;6.05;2.75;;;14.80;99.90;;;;;;5236100;28;20028;-74
2022/09/16 02:47:08;;;;;;;3.17;2.80;;;14.80;99.90;;;;;;5217071;28;20582;-73
2022/09/16 02:50:09;;;;;;;6.32;3.15;;;14.80;99.90;;;;;;5219947;28;20045;-74
2022/09/16 02:53:01;;;;;;;3.53;3.22;;;14.70;99.90;;;;;;5193949;28;20033;-73
2022/09/16 02:56:00;;;;;;;4.47;3.78;;;14.80;99.90;;;;;;5204588;28;20033;-73
2022/09/16 02:58:33;;;;;;;3.53;3.22;;;14.90;99.90;;;;;;5217900;28;20375;-73
2022/09/16 03:01:10;;;;;;;5.00;3.70;;;14.90;99.90;;;;;;5211306;28;20038;-73
2022/09/16 03:03:45;;;;;;;4.30;3.90;;;14.90;99.90;;;;;;5232397;28;20056;-73
2022/09/16 03:06:23;;;;;;;4.25;3.28;;;14.90;99.90;;;;;;5214377;28;20079;-73
2022/09/16 03:09:06;;;;;;;6.68;3.40;;;14.90;99.90;;;;;;5212631;28;20318;-73
2022/09/16 03:12:16;;;;;;;4.63;3.38;;;15.00;99.90;;;;;;5218568;28;20048;-73
2022/09/16 03:15:05;;;;;;;4.03;2.97;;;15.00;99.90;;;;;;5132824;28;20050;-73
2022/09/16 03:18:36;;;;;;;4.18;3.58;;;15.00;99.90;;;;;;5128434;28;20038;-73
2022/09/16 03:21:21;;;;;;;8.27;4.13;;;15.00;99.90;;;;;;5081701;29;20049;-74
2022/09/16 03:24:27;;;;;;;6.75;4.20;;;15.00;99.90;;;;;;5091393;29;20036;-73
2022/09/16 03:27:11;;;;;;;6.57;3.90;;;15.00;99.90;;;;;;5175611;28;20036;-73
2022/09/16 03:29:54;;;;;;;5.55;4.30;;;14.90;99.90;;;;;;5204360;28;20036;-73
2022/09/16 03:33:06;;;;;;;4.10;3.65;;;14.90;99.90;;;;;;5238896;28;20028;-73
2022/09/16 03:35:52;;;;;;;4.28;3.83;;;14.90;99.90;;;;;;5167236;28;20042;-72
2022/09/16 03:38:29;;;;;;;3.45;3.15;;;14.80;99.90;;;;;;5173499;28;20046;-73
2022/09/16 03:41:05;;;;;;;4.97;3.45;;;14.80;99.90;;;;;;5158078;28;20050;-73
2022/09/16 03:43:39;;;;;;;4.70;3.15;;;14.70;99.90;;;;;;5163010;28;20034;-73
2022/09/16 03:46:13;;;;;;;5.75;3.53;;;14.70;99.90;;;;;;5159170;28;20050;-73
2022/09/16 03:48:45;;;;;;;3.65;3.22;;;14.70;99.90;;;;;;5153202;28;20062;-74
2022/09/16 03:51:17;;;;;;;5.38;3.65;;;14.60;99.90;;;;;;5148429;28;20042;-73
2022/09/16 03:53:54;;;;;;;4.05;3.65;;;14.60;99.90;;;;;;5141287;28;20038;-73
2022/09/16 03:56:26;;;;;;;6.95;3.65;;;14.60;99.90;;;;;;5156329;28;20369;-74
2022/09/16 03:59:00;;;;;;;4.90;3.85;;;14.60;99.90;;;;;;5139836;28;20057;-73
2022/09/16 04:01:33;;;;;;;5.35;4.18;;;14.60;99.90;;;;;;5156917;28;20556;-72
2022/09/16 04:04:05;;;;;;;4.63;4.13;;;14.60;99.90;;;;;;5159463;28;20467;-72
2022/09/16 04:06:41;;;;;;;6.07;3.65;;;14.60;99.90;;;;;;5116813;28;20058;-72
2022/09/16 04:09:18;;;;;;;4.22;3.42;;;14.60;99.90;;;;;;5155756;28;20488;-72
2022/09/16 04:11:53;;;;;;;4.35;3.60;;;14.60;99.90;;;;;;5215769;28;20052;-72
2022/09/16 04:14:24;;;;;;;4.22;3.58;;;14.60;99.90;;;;;;5222672;28;20032;-72
2022/09/16 04:17:01;;;;;;;4.97;3.53;;;14.60;99.90;;;;;;5220326;28;20021;-72
2022/09/16 04:19:41;;;;;;;5.28;3.17;;;14.60;99.90;;;;;;5223328;28;20041;-72
2022/09/16 04:22:13;;;;;;;6.40;3.80;;;14.60;99.90;;;;;;5221975;28;20021;-72
2022/09/16 04:24:46;;;;;;;6.22;4.13;;;14.50;99.90;;;;;;5221583;28;20100;-72
2022/09/16 04:27:24;;;;;;;5.17;3.70;;;14.60;99.90;;;;;;5221340;28;20040;-72
2022/09/16 04:29:58;;;;;;;4.80;3.38;;;14.60;99.90;;;;;;5219117;28;20276;-71
2022/09/16 04:32:29;;;;;;;6.40;3.80;;;14.50;99.90;;;;;;5226144;28;20036;-72
2022/09/16 04:35:04;;;;;;;4.55;3.88;;;14.50;99.90;;;;;;5254018;28;20021;-72
2022/09/16 04:37:40;;;;;;;5.82;4.00;;;14.50;99.90;;;;;;5224357;28;20029;-71
2022/09/16 04:40:12;;;;;;;5.72;4.25;;;14.40;99.90;;;;;;5234646;28;20044;-72
2022/09/16 04:42:52;;;;;;;5.10;4.13;;;14.40;99.90;;;;;;5209459;28;20383;-73
2022/09/16 04:45:27;;;;;;;4.72;4.22;;;14.50;99.90;;;;;;5222156;28;20049;-72
2022/09/16 04:48:01;;;;;;;;;;;14.50;99.90;;;;;;5221786;28;20025;-73
2022/09/16 04:50:34;;;;;;;6.28;4.63;;;14.50;99.90;;;;;;5238648;28;19908;-72
2022/09/16 04:53:11;;;;;;;7.38;4.43;;;14.50;99.90;;;;;;5214811;28;20569;-73
2022/09/16 04:55:43;;;;;;;6.20;4.22;;;14.50;99.90;;;;;;5236705;28;20041;-71
2022/09/16 04:58:17;;;;;;;5.78;4.20;;;14.50;99.90;;;;;;5221702;28;20070;-71
2022/09/16 05:00:52;;;;;;;5.72;4.43;;;14.40;99.90;;;;;;5238354;28;20028;-73
2022/09/16 05:03:29;;;;;;;4.85;4.15;;;14.40;99.90;;;;;;5238352;28;20059;-72
2022/09/16 05:06:11;;;;;;;5.15;4.43;;;14.40;99.90;;;;;;5213104;28;20049;-73
2022/09/16 05:08:52;;;;;;;7.40;4.97;;;14.50;99.90;;;;;;5216734;28;20036;-73
2022/09/16 05:11:32;;;;;;;6.93;4.57;;;14.50;99.90;;;;;;5215505;28;20043;-72
2022/09/16 05:14:15;;;;;;;4.68;3.97;;;14.50;99.90;;;;;;5231209;28;20066;-72
2022/09/16 05:16:49;;;;;;;6.60;4.55;;;14.60;99.90;;;;;;5220835;28;20044;-73
2022/09/16 05:19:21;;;;;;;5.00;4.30;;;14.60;99.90;;;;;;5238398;28;20037;-73
2022/09/16 05:21:52;;;;;;;8.00;4.32;;;14.60;99.90;;;;;;5238229;28;20032;-72
2022/09/16 05:24:25;;;;;;;5.97;4.68;;;14.60;99.90;;;;;;5239758;28;20044;-72
2022/09/16 05:26:56;;;;;;;5.70;3.95;;;14.60;99.90;;;;;;5240468;28;20667;-72
2022/09/16 05:29:29;;;;;;;7.05;4.45;;;14.60;99.90;;;;;;5218893;28;20036;-73
2022/09/16 05:32:01;;;;;;;7.10;4.45;;;14.60;99.90;;;;;;5201871;28;20391;-73
2022/09/16 05:34:36;;;;;;;5.68;3.97;;;14.60;99.90;;;;;;5221431;28;20024;-73
2022/09/16 05:37:12;;;;;;;5.28;4.78;;;14.70;99.90;;;;;;5233026;28;20078;-73
2022/09/16 05:39:44;;;;;;;5.97;4.25;;;14.70;99.90;;;;;;5231709;28;20037;-72
2022/09/16 05:42:18;;;;;;;4.13;3.50;;;14.60;99.90;;;;;;5201290;28;20043;-72
2022/09/16 05:44:52;;;;;;;5.70;4.53;;;14.60;99.90;;;;;;5202189;28;20043;-72
2022/09/16 05:47:28;;;;;;;5.70;4.20;;;14.70;99.90;;;;;;5210076;28;20044;-72
2022/09/16 05:50:03;;;;;;;5.47;4.28;;;14.70;99.90;;;;;;5216466;28;20055;-71
2022/09/16 05:52:39;;;;;;;4.53;4.13;;;14.70;99.90;;;;;;5224102;28;20029;-73
2022/09/16 05:55:16;;;;;;;4.53;4.00;;;14.70;99.90;;;;;;5238254;28;20040;-73
2022/09/16 05:57:52;;;;;;;5.05;4.50;;;14.70;99.90;;;;;;5221852;28;20040;-73
2022/09/16 06:00:24;;;;;;;8.00;4.28;;;14.80;99.90;;;;;;5212175;28;20037;-71
2022/09/16 06:03:07;;;;;;;6.07;3.65;;;14.80;99.90;;;;;;5202348;28;20045;-72
2022/09/16 06:05:38;;;;;;;5.47;4.53;;;14.90;99.90;;;;;;5199763;28;20420;-72
2022/09/16 06:08:13;;;;;;;4.53;3.95;;;14.90;99.90;;;;;;5208228;28;20350;-71
2022/09/16 06:10:50;;;;;;;5.38;4.05;;;15.00;99.90;;;;;;5213177;28;20130;-72
2022/09/16 06:13:30;;;;;;;5.70;3.65;;;15.10;99.90;;;;;;5215032;28;20063;-72
2022/09/16 06:16:07;;;;;;;4.38;3.97;;;15.20;99.90;;;;;;5207162;28;20048;-72
2022/09/16 06:18:43;;;;;;;7.22;5.40;;;15.20;99.90;;;;;;5209843;28;20047;-71
2022/09/16 06:21:17;;;;;;;4.55;3.67;;;15.30;99.90;;;;;;5210583;28;20031;-71
2022/09/16 06:23:52;;;;;;;4.45;3.78;;;15.30;99.90;;;;;;5176292;28;20033;-72
2022/09/16 06:26:30;;;;;;;5.35;3.85;;;15.20;99.90;;;;;;5180203;28;20041;-74
2022/09/16 06:29:06;;;;;;;7.32;4.38;;;15.20;99.90;;;;;;5200556;28;20606;-74
2022/09/16 06:31:40;;;;;;;6.03;4.57;;;15.20;99.90;;;;;;5198918;28;20035;-74
2022/09/16 06:34:18;;;;;;;5.22;3.80;;;15.20;99.90;;;;;;5198107;28;20037;-73
2022/09/16 06:37:01;;;;;;;10.00;4.25;;;15.20;99.90;;;;;;5209015;28;20041;-74
2022/09/16 06:39:33;;;;;;;5.65;4.43;;;15.10;99.90;;;;;;5215947;28;20035;-72
2022/09/16 06:42:07;;;;;;;4.63;4.00;;;15.20;99.90;;;;;;5198743;28;20479;-74
2022/09/16 06:44:41;;;;;;;4.53;4.10;;;15.30;99.90;;;;;;5199487;28;20063;-74
2022/09/16 06:47:12;;;;;;;4.28;3.88;;;15.50;99.90;;;;;;5204214;28;20788;-73
2022/09/16 06:49:45;;;;;;;6.40;3.88;;;15.70;99.90;;;;;;5173548;28;20048;-73
2022/09/16 06:52:21;;;;;;;5.35;3.78;;;15.80;99.90;;;;;;5179221;28;20481;-74
2022/09/16 06:54:53;;;;;;;5.22;4.00;;;16.00;99.90;;;;;;5193923;28;20037;-73
2022/09/16 06:57:33;;;;;;;4.50;3.55;;;16.00;99.90;;;;;;5182798;28;20040;-73
2022/09/16 07:00:08;;;;;;;3.85;3.42;;;16.00;99.90;;;;;;5198334;28;20037;-73
2022/09/16 07:02:46;;;;;;;4.35;3.15;;;15.80;99.90;;;;;;5197884;28;20040;-74
2022/09/16 07:05:20;;;;;;;5.82;3.28;;;15.70;99.90;;;;;;5208980;28;20052;-72
2022/09/16 07:07:55;;;;;;;3.25;2.83;;;15.60;99.90;;;;;;5243794;28;20062;-73
2022/09/16 07:10:26;;;;;;;3.22;2.65;;;15.60;99.90;;;;;;5219364;28;20047;-73
2022/09/16 07:13:00;;;;;;;3.63;3.00;;;15.60;99.90;;;;;;5218405;28;20032;-73
2022/09/16 07:15:34;;;;;;;3.38;3.08;;;15.60;99.90;;;;;;5214432;28;20033;-73
2022/09/16 07:18:06;;;;;;;3.33;2.92;;;15.60;99.90;;;;;;5233989;28;20040;-73
2022/09/16 07:20:45;;;;;;;5.20;3.13;;;15.60;99.90;;;;;;5238699;28;20459;-74
2022/09/16 07:23:19;;;;;;;3.20;2.42;;;15.70;99.90;;;;;;5238843;28;20040;-73
2022/09/16 07:26:22;;;;;;;3.05;2.65;;;15.80;99.90;;;;;;5232329;28;20043;-72
2022/09/16 07:28:55;;;;;;;4.22;2.50;;;16.00;99.90;;;;;;5220455;28;20043;-72
2022/09/16 07:31:31;;;;;;;2.53;2.30;;;16.00;99.90;;;;;;5238252;28;20048;-72
2022/09/16 07:34:09;;;;;;;2.22;2.00;;;16.10;99.90;;;;;;5221854;28;20111;-72
2022/09/16 07:36:46;;;;;;;5.30;2.10;;;16.20;99.90;;;;;;5236983;28;20044;-71
2022/09/16 07:39:24;;;;;;;4.03;2.10;;;16.10;99.90;;;;;;5222121;28;20036;-72
2022/09/16 07:42:03;;;;;;;2.47;2.28;;;16.20;99.90;;;;;;5238663;28;20036;-72
2022/09/16 07:44:35;;;;;;;2.60;2.08;;;16.20;99.90;;;;;;5220133;28;20035;-72
2022/09/16 07:47:09;;;;;;;3.33;2.15;;;16.30;99.90;;;;;;5235726;28;20467;-72
2022/09/16 07:49:41;;;;;;;;;;;16.40;99.90;;;;;;5236877;28;20025;-72
2022/09/16 07:52:15;;;;;;;2.20;2.00;;;16.30;99.90;;;;;;5218179;28;19923;-72
2022/09/16 07:54:49;;;;;;;4.50;2.33;;;16.50;99.90;;;;;;5236131;28;20579;-74
2022/09/16 07:57:21;;;;;;;2.65;2.00;;;16.50;99.90;;;;;;5235699;28;20037;-72
2022/09/16 07:59:56;;;;;;;2.45;2.10;;;16.60;99.90;;;;;;5235947;28;20043;-72
2022/09/16 08:02:30;;;;;;;4.38;2.70;;;16.60;99.90;;;;;;5227665;28;20051;-74
2022/09/16 08:05:08;;;;;;;2.25;2.05;;;16.60;99.90;;;;;;5213826;28;20491;-72
2022/09/16 08:07:40;;;;;;;4.80;1.90;;;16.60;99.90;;;;;;5185740;28;20047;-72
2022/09/16 08:10:11;;;;;;;4.63;2.33;;;16.70;99.90;;;;;;5194496;28;20037;-72
2022/09/16 08:12:46;;;;;;;2.33;2.13;;;16.60;99.90;;;;;;5195807;28;20033;-72
2022/09/16 08:15:21;;;;;;;2.65;2.17;;;16.70;99.90;;;;;;5211910;28;20043;-74
2022/09/16 08:17:54;;;;;;;2.25;2.03;;;16.80;99.90;;;;;;5213945;28;20025;-74
2022/09/16 08:20:29;;;;;;;2.43;2.13;;;16.80;99.90;;;;;;5180920;28;20045;-74
2022/09/16 08:23:06;;;;;;;4.13;2.53;;;17.00;99.90;;;;;;5197014;28;20286;-74
2022/09/16 08:25:44;;;;;;;3.17;2.40;;;17.00;99.90;;;;;;5199093;28;20557;-74
2022/09/16 08:28:16;;;;;;;4.13;2.30;;;17.20;99.90;;;;;;5202460;28;20037;-74
2022/09/16 08:30:51;;;;;;;3.70;1.95;;;17.30;99.90;;;;;;5219771;28;20048;-74
2022/09/16 08:33:25;;;;;;;3.83;2.10;;;17.60;99.90;;;;;;5221520;28;20045;-73
2022/09/16 08:36:15;;;;;;;2.50;2.30;;;17.70;99.90;;;;;;5218844;28;20441;-72
2022/09/16 08:38:53;;;;;;;3.20;1.75;;;17.80;99.90;;;;;;5218974;28;20033;-72
2022/09/16 08:41:41;;;;;;;3.47;1.88;;;17.80;99.90;;;;;;5218855;28;20028;-72
2022/09/16 08:44:27;;;;;;;5.05;2.50;;;17.90;99.90;;;;;;5201572;28;20500;-72
2022/09/16 08:47:07;;;;;;;3.60;1.95;;;18.00;99.90;;;;;;5219068;28;20569;-73
2022/09/16 08:49:49;;;;;;;2.38;1.90;;;18.30;99.90;;;;;;5230080;28;20040;-74
2022/09/16 08:52:36;;;;;;;2.63;2.25;;;18.50;99.90;;;;;;5215943;28;20055;-73
2022/09/16 08:55:18;;;;;;;6.50;2.35;;;18.30;99.90;;;;;;5191248;28;20071;-74
2022/09/16 08:58:20;;;;;;;3.20;2.35;;;18.40;99.90;;;;;;5198935;28;20037;-74
2022/09/16 09:01:01;;;;;;;2.70;2.25;;;18.50;99.90;;;;;;5209020;28;20055;-74
2022/09/16 09:03:45;;;;;;;4.50;2.30;;;18.40;99.90;;;;;;5192004;28;20592;-72
2022/09/16 09:06:50;;;;;;;3.90;1.98;;;18.60;99.90;;;;;;5210414;28;20107;-72
2022/09/16 09:09:42;;;;;;;3.35;2.15;;;18.80;99.90;;;;;;5227934;28;20066;-72
2022/09/16 09:12:26;;;;;;;2.50;2.30;;;18.90;99.90;;;;;;5205734;28;20032;-72
2022/09/16 09:15:25;;;;;;;6.00;2.17;;;18.80;99.90;;;;;;5219287;28;20047;-74
2022/09/16 09:18:31;;;;;;;3.65;2.63;;;18.90;99.90;;;;;;5228539;28;20592;-72
2022/09/16 09:21:38;;;;;;;4.03;2.50;;;18.80;99.90;;;;;;5217689;28;20052;-72
2022/09/16 09:24:43;;;;;;;2.72;2.25;;;18.70;99.90;;;;;;5243443;28;20025;-72
2022/09/16 09:27:31;;;;;;;2.85;2.58;;;18.70;99.90;;;;;;5243233;28;20492;-72
2022/09/16 09:30:29;;;;;;;2.80;2.53;;;18.60;99.90;;;;;;5219514;28;20029;-73
2022/09/16 09:33:53;;;;;;;4.07;2.80;;;18.30;99.90;;;;;;5208295;28;20052;-73
2022/09/16 09:37:17;;;;;;;4.22;2.50;;;18.10;99.90;;;;;;5242421;28;20029;-72
2022/09/16 09:40:23;;;;;;;2.90;2.70;;;17.50;99.90;;;;;;5215731;28;20048;-72
2022/09/16 09:43:18;;;;;;;3.90;2.35;;;17.70;99.90;;;;;;5175992;28;20149;-72
2022/09/16 09:46:05;;;;;;;3.15;2.50;;;17.80;99.90;;;;;;5226105;28;20056;-74
2022/09/16 09:48:46;;;;;;;3.30;2.50;;;17.90;99.90;;;;;;5226227;28;20032;-74
2022/09/16 09:51:27;;;;;;;3.85;2.72;;;18.20;99.90;;;;;;5243580;28;20029;-74
2022/09/16 09:54:32;;;;;;;4.18;2.60;;;18.40;99.90;;;;;;5225904;28;20027;-74
2022/09/16 09:57:27;;;;;;;4.45;2.45;;;18.60;99.90;;;;;;5226762;28;20041;-74
2022/09/16 10:00:11;;;;;;;4.35;3.33;;;18.40;99.90;;;;;;5238376;28;20029;-73
2022/09/16 10:02:46;;;;;;;9.40;3.13;;;18.70;99.90;;;;;;5205925;28;20046;-73
2022/09/16 10:05:24;;;;;;;5.07;3.42;;;18.60;99.90;;;;;;5213134;28;20376;-71
2022/09/16 10:08:22;;;;;;;3.03;2.58;;;18.80;99.90;;;;;;5222734;28;20028;-71
2022/09/16 10:11:00;;;;;;;4.72;3.42;;;19.20;99.90;;;;;;5220026;28;20060;-72
2022/09/16 10:13:31;;;;;;;3.13;2.67;;;19.20;99.90;;;;;;5223276;28;20071;-74
2022/09/16 10:16:16;;;;;;;6.50;3.28;;;19.00;99.90;;;;;;5240902;28;20028;-74
2022/09/16 10:19:24;;;;;;;5.07;3.30;;;19.00;99.90;;;;;;5222533;28;20025;-74
2022/09/16 10:22:30;;;;;;;3.03;2.67;;;19.10;99.90;;;;;;5226152;28;20317;-74
2022/09/16 10:25:27;;;;;;;3.13;2.70;;;19.50;99.90;;;;;;5229876;28;20039;-73
2022/09/16 10:28:16;;;;;;;6.70;2.92;;;19.90;99.90;;;;;;5232336;28;20024;-72
2022/09/16 10:30:58;;;;;;;3.75;2.80;;;20.10;99.90;;;;;;5226904;28;20483;-72
2022/09/16 10:33:34;;;;;;;4.15;3.10;;;19.70;99.90;;;;;;5210837;28;20044;-73
2022/09/16 10:36:11;;;;;;;4.82;2.83;;;19.30;99.90;;;;;;5204651;28;20079;-72
2022/09/16 10:38:53;;;;;;;3.20;2.80;;;19.30;99.90;;;;;;5238443;28;20043;-72
2022/09/16 10:41:33;;;;;;;5.00;2.88;;;19.00;99.90;;;;;;5222167;28;20044;-73
2022/09/16 10:44:38;;;;;;;3.67;3.15;;;19.20;99.90;;;;;;5219919;28;20090;-73
2022/09/16 10:47:37;;;;;;;4.53;3.03;;;19.30;99.90;;;;;;5219935;28;20032;-73
2022/09/16 10:50:17;;;;;;;5.60;3.10;;;19.00;99.90;;;;;;5212889;28;20043;-73
2022/09/16 10:52:49;;;;;;;4.05;3.65;;;19.00;99.90;;;;;;5205615;28;20033;-72
2022/09/16 10:55:37;;;;;;;4.80;2.92;;;19.00;99.90;;;;;;5240448;28;20034;-72
2022/09/16 10:58:20;;;;;;;4.28;3.45;;;19.30;99.90;;;;;;5226441;28;20020;-73
2022/09/16 11:01:12;;;;;;;3.00;2.70;;;19.70;99.90;;;;;;5211082;28;20037;-72
2022/09/16 11:04:34;;;;;;;3.53;2.90;;;19.90;99.90;;;;;;5221801;28;20032;-73
2022/09/16 11:07:47;;;;;;;2.92;2.65;;;20.00;99.90;;;;;;5172712;28;20051;-74
2022/09/16 11:10:49;;;;;;;4.57;2.67;;;19.70;99.90;;;;;;5154834;28;20613;-74
2022/09/16 11:14:08;;;;;;;3.75;2.65;;;19.80;99.90;;;;;;5138707;28;20042;-73
2022/09/16 11:16:52;;;;;;;5.97;2.63;;;19.50;99.90;;;;;;5143810;28;20068;-73
2022/09/16 11:19:37;;;;;;;2.92;2.67;;;19.50;99.90;;;;;;5155431;28;20452;-72
2022/09/16 11:22:43;;;;;;;3.13;2.83;;;19.30;99.90;;;;;;5124373;28;20041;-73
2022/09/16 11:25:37;;;;;;;4.13;3.30;;;18.80;99.90;;;;;;5139139;28;20029;-72
2022/09/16 11:28:32;;;;;;;4.88;2.85;;;18.70;99.90;;;;;;5158489;28;20065;-72
2022/09/16 11:31:31;;;;;;;4.03;2.75;;;18.80;99.90;;;;;;5157683;28;20038;-73
2022/09/16 11:34:55;;;;;;;3.67;3.08;;;18.90;99.90;;;;;;5157766;28;20046;-73
2022/09/16 11:37:47;;;;;;;3.30;3.00;;;18.80;99.90;;;;;;5141946;28;20033;-73
2022/09/16 11:40:46;;;;;;;4.18;3.00;;;18.80;99.90;;;;;;5155357;28;20041;-73
2022/09/16 11:43:51;;;;;;;2.83;2.55;;;18.80;99.90;;;;;;5139833;28;20048;-73
2022/09/16 11:46:41;;;;;;;;;;;18.70;99.90;;;;;;5176697;28;20246;-73
2022/09/16 11:49:58;;;;;;;2.53;2.30;;;18.80;99.90;;;;;;5200746;28;19923;-73
2022/09/16 11:53:00;;;;;;;4.75;2.90;;;18.70;99.90;;;;;;5217914;28;20037;-73
2022/09/16 11:55:41;;;;;;;3.38;2.92;;;18.70;99.90;;;;;;5217125;28;20044;-73
2022/09/16 11:58:45;;;;;;;3.60;2.45;;;18.90;99.90;;;;;;5218725;28;20066;-72
2022/09/16 12:01:31;;;;;;;3.22;2.47;;;19.00;99.90;;;;;;5203045;28;20021;-71
2022/09/16 12:04:22;;;;;;;4.45;2.47;;;19.00;99.90;;;;;;5205159;28;20525;-72
2022/09/16 12:07:24;;;;;;;3.63;2.90;;;19.10;99.90;;;;;;5159654;28;20060;-73
2022/09/16 12:10:29;;;;;;;5.30;2.60;;;19.00;99.90;;;;;;5217143;28;20043;-73
2022/09/16 12:13:17;;;;;;;3.00;2.70;;;19.10;99.90;;;;;;5205784;28;20476;-73
2022/09/16 12:16:03;;;;;;;2.75;2.35;;;19.30;99.90;;;;;;5206987;28;20437;-73
2022/09/16 12:18:55;;;;;;;3.58;2.67;;;19.50;99.90;;;;;;5205665;28;20326;-72
2022/09/16 12:21:50;;;;;;;2.85;2.45;;;19.70;99.90;;;;;;5206236;28;20041;-72
2022/09/16 12:24:41;;;;;;;;;;;19.50;99.90;;;;;;5193634;28;20406;-72
2022/09/16 12:27:23;;;;;;;3.05;2.60;;;19.60;99.90;;;;;;5204217;28;19915;-73
2022/09/16 12:30:14;;;;;;;3.38;2.40;;;19.50;99.90;;;;;;5194448;28;20056;-72
2022/09/16 12:33:01;;;;;;;2.58;2.30;;;19.90;99.90;;;;;;5203381;28;20431;-72
2022/09/16 12:35:41;;;;;;;3.17;2.53;;;20.30;99.90;;;;;;5206268;28;20315;-72
2022/09/16 12:38:19;;;;;;;2.92;2.63;;;20.70;99.90;;;;;;5173013;28;20045;-73
2022/09/16 12:41:17;;;;;;;2.30;2.10;;;20.40;99.90;;;;;;5222664;28;20029;-72
2022/09/16 12:44:08;;;;;;;4.03;2.20;;;19.90;99.90;;;;;;5196268;28;20049;-72
2022/09/16 12:47:25;;;;;;;3.60;2.50;;;19.60;99.90;;;;;;5205504;28;20021;-73
2022/09/16 12:50:12;;;;;;;3.55;2.47;;;19.40;99.90;;;;;;5220432;28;20047;-72
2022/09/16 12:53:07;;;;;;;3.35;2.50;;;19.10;99.90;;;;;;5216213;28;20506;-72
2022/09/16 12:55:48;;;;;;;3.05;2.38;;;19.40;99.90;;;;;;5221352;28;20037;-73
2022/09/16 12:58:25;;;;;;;2.58;2.38;;;19.30;99.90;;;;;;5221465;28;20040;-72
2022/09/16 13:01:06;;;;;;;4.28;2.40;;;19.50;99.90;;;;;;5220994;28;20043;-74
2022/09/16 13:03:47;;;;;;;2.65;2.45;;;19.40;99.90;;;;;;5219827;28;20059;-72
2022/09/16 13:06:31;;;;;;;3.90;2.60;;;19.50;99.90;;;;;;5194843;28;20442;-73
2022/09/16 13:09:37;;;;;;;2.75;2.53;;;19.60;99.90;;;;;;5170791;28;20059;-73
2022/09/16 13:12:25;;;;;;;2.97;2.22;;;19.80;99.90;;;;;;5178112;28;20037;-73
2022/09/16 13:15:10;;;;;;;4.43;2.85;;;19.50;99.90;;;;;;5178789;28;20046;-73
2022/09/16 13:17:41;;;;;;;3.80;2.92;;;19.60;99.90;;;;;;5162489;28;20639;-74
2022/09/16 13:20:23;;;;;;;2.88;2.58;;;19.50;99.90;;;;;;5180901;28;20615;-73
2022/09/16 13:22:54;;;;;;;5.82;2.80;;;19.70;99.90;;;;;;5170417;28;20440;-74
2022/09/16 13:25:33;;;;;;;3.47;2.40;;;19.90;99.90;;;;;;5175743;28;20038;-73
2022/09/16 13:28:31;;;;;;;2.60;2.40;;;19.60;99.90;;;;;;5167918;28;20046;-74
2022/09/16 13:31:25;;;;;;;6.68;3.10;;;19.70;99.90;;;;;;5174813;28;20373;-74
2022/09/16 13:33:59;;;;;;;3.70;2.70;;;19.50;99.90;;;;;;5178097;28;20049;-73
2022/09/16 13:36:35;;;;;;;2.90;2.60;;;19.50;99.90;;;;;;5178023;28;20060;-74
2022/09/16 13:39:29;;;;;;;7.22;2.97;;;19.40;99.90;;;;;;5161166;28;20426;-73
2022/09/16 13:42:24;;;;;;;4.60;2.83;;;19.40;99.90;;;;;;5186352;28;20037;-73
2022/09/16 13:44:58;;;;;;;2.90;2.58;;;19.00;99.90;;;;;;5175244;28;20049;-73
2022/09/16 13:47:39;;;;;;;5.25;2.88;;;19.00;99.90;;;;;;5178009;28;20574;-72
2022/09/16 13:50:20;;;;;;;4.35;2.65;;;19.00;99.90;;;;;;5205894;28;20384;-73
2022/09/16 13:52:52;;;;;;;4.05;2.85;;;19.10;99.90;;;;;;5219286;28;20051;-72
2022/09/16 13:55:27;;;;;;;2.70;2.45;;;19.00;99.90;;;;;;5190338;28;20044;-72
2022/09/16 13:58:20;;;;;;;3.30;2.88;;;19.20;99.90;;;;;;5201808;28;20047;-74
2022/09/16 14:01:09;;;;;;;4.75;2.67;;;19.10;99.90;;;;;;5202029;28;20045;-72
2022/09/16 14:03:56;;;;;;;3.25;2.75;;;18.80;99.90;;;;;;5218008;28;20035;-72
2022/09/16 14:07:19;;;;;;;2.83;2.53;;;18.70;99.90;;;;;;5188187;28;20055;-72
2022/09/16 14:10:25;;;;;;;4.28;2.67;;;18.60;99.90;;;;;;5199975;28;20051;-72
2022/09/16 14:13:19;;;;;;;2.70;2.50;;;18.80;99.90;;;;;;5201513;28;20033;-72
2022/09/16 14:16:01;;;;;;;5.57;2.80;;;18.90;99.90;;;;;;5201254;28;20472;-73
2022/09/16 14:18:35;;;;;;;3.97;2.40;;;19.20;99.90;;;;;;5209185;28;20050;-72